Time;durP1;ratioP1;P1;durP2;ratioP2;P2;SDS_P1;SDS_P2;PMS_P1;PMS_P2;Temp;Humidity;BMP_temperature;BMP_pressure;BME280_temperature;BME280_humidity;BME280_pressure;Samples;Min_cycle;Max_cycle;Signal;HPM_P1;HPM_P2
2022/12/07 00:00:52;;;;;;;60.72;32.10;;;;;;;10.27;71.15;99761.44;5076407;28;20552;-80
2022/12/07 00:03:18;;;;;;;67.35;34.33;;;;;;;10.28;71.50;99751.69;5094204;28;20103;-80
2022/12/07 00:05:43;;;;;;;90.88;49.55;;;;;;;9.79;71.11;99678.81;5076511;28;20398;-80
2022/12/07 00:08:09;;;;;;;72.55;38.83;;;;;;;10.02;71.32;99722.91;5094193;28;20054;-80
2022/12/07 00:10:34;;;;;;;70.25;33.97;;;;;;;10.17;71.00;99751.03;5094159;28;20401;-80
2022/12/07 00:13:00;;;;;;;72.10;39.55;;;;;;;10.17;71.44;99747.59;5093672;28;20040;-80
2022/12/07 00:15:25;;;;;;;66.97;34.85;;;;;;;9.81;71.51;99691.81;5093834;28;20017;-80
2022/12/07 00:17:51;;;;;;;65.07;34.50;;;;;;;10.08;71.19;99727.50;5093923;28;20027;-80
2022/12/07 00:20:16;;;;;;;62.75;31.50;;;;;;;9.78;71.42;99686.88;5094048;28;20020;-80
2022/12/07 00:22:41;;;;;;;78.47;34.42;;;;;;;9.85;71.31;99703.66;5093941;28;20016;-80
2022/12/07 00:25:07;;;;;;;74.40;36.13;;;;;;;9.36;71.48;99631.78;5075745;28;20495;-80
2022/12/07 00:27:32;;;;;;;67.25;32.45;;;;;;;9.60;71.78;99673.06;5093779;28;20020;-80
2022/12/07 00:29:58;;;;;;;59.78;30.70;;;;;;;9.24;71.34;99613.69;5093811;28;20458;-80
2022/12/07 00:32:23;;;;;;;66.63;31.33;;;;;;;9.89;71.52;99718.16;5093800;28;20509;-80
2022/12/07 00:34:49;;;;;;;67.63;34.17;;;;;;;9.69;71.34;99680.00;5094250;28;20024;-80
2022/12/07 00:37:14;;;;;;;70.05;32.65;;;;;;;9.70;71.44;99673.72;5094024;28;20016;-80
2022/12/07 00:39:39;;;;;;;63.78;33.65;;;;;;;9.83;71.65;99709.13;5093815;28;20086;-80
2022/12/07 00:42:05;;;;;;;66.18;32.15;;;;;;;10.18;71.45;99739.50;5093643;28;20038;-80
2022/12/07 00:44:30;;;;;;;73.15;34.65;;;;;;;9.73;71.20;99674.22;5093637;28;20496;-80
2022/12/07 00:46:56;;;;;;;60.80;32.55;;;;;;;10.16;71.66;99751.22;5093480;28;20145;-79
2022/12/07 00:49:21;;;;;;;64.25;33.05;;;;;;;9.78;71.33;99682.44;5075134;28;20024;-80
2022/12/07 00:51:48;;;;;;;63.58;32.00;;;;;;;10.24;71.10;99753.03;5074908;28;20023;-80
2022/12/07 00:54:14;;;;;;;64.88;33.58;;;;;;;10.25;70.85;99749.41;5093322;28;20039;-80
2022/12/07 00:56:39;;;;;;;69.22;34.22;;;;;;;9.83;71.01;99695.94;5074933;28;20016;-80
2022/12/07 00:59:05;;;;;;;70.85;35.70;;;;;;;10.02;71.79;99712.34;5092695;28;20024;-80
2022/12/07 01:01:36;;;;;;;72.65;35.17;;;;;;;9.86;71.19;99695.59;5093419;28;20050;-80
2022/12/07 01:04:02;;;;;;;67.38;31.70;;;;;;;9.74;71.07;99690.84;5075179;28;20096;-80
2022/12/07 01:06:28;;;;;;;72.20;35.42;;;;;;;10.24;71.84;99755.69;5093246;28;20497;-80
2022/12/07 01:08:54;;;;;;;70.15;31.83;;;;;;;9.77;70.87;99669.41;5093131;28;20040;-80
2022/12/07 01:11:23;;;;;;;67.82;31.20;;;;;;;10.04;70.89;99713.84;5093012;28;20103;-80
2022/12/07 01:13:53;;;;;;;69.00;32.70;;;;;;;9.63;71.16;99641.91;5092838;28;20086;-80
2022/12/07 01:16:20;;;;;;;73.45;32.90;;;;;;;10.27;71.57;99740.31;5093062;28;20031;-80
2022/12/07 01:18:48;;;;;;;73.00;35.47;;;;;;;9.85;71.11;99664.94;5074425;28;20016;-80
2022/12/07 01:21:23;;;;;;;74.53;35.15;;;;;;;10.28;71.75;99730.59;5074589;28;20020;-80
2022/12/07 01:23:49;;;;;;;73.53;34.42;;;;;;;10.27;71.59;99750.06;5092755;28;20024;-80
2022/12/07 01:26:18;;;;;;;73.75;33.72;;;;;;;10.25;71.81;99731.75;5092866;28;20020;-80
2022/12/07 01:28:44;;;;;;;70.57;32.83;;;;;;;10.17;71.89;99727.31;5092657;28;20024;-80
2022/12/07 01:31:14;;;;;;;79.72;37.53;;;;;;;10.17;71.95;99718.56;5096176;28;20020;-80
2022/12/07 01:33:41;;;;;;;74.15;36.10;;;;;;;9.97;71.44;99690.94;5115822;28;20083;-80
2022/12/07 01:36:14;;;;;;;80.38;37.22;;;;;;;10.02;71.43;99693.88;5093056;28;20107;-80
2022/12/07 01:38:40;;;;;;;71.50;34.22;;;;;;;9.99;71.83;99687.13;5093380;28;20024;-80
2022/12/07 01:41:06;;;;;;;73.13;35.03;;;;;;;9.54;71.76;99616.56;5092921;28;20031;-80
2022/12/07 01:43:33;;;;;;;69.55;31.38;;;;;;;10.19;71.83;99712.13;5092215;28;20013;-80
2022/12/07 01:46:00;;;;;;;73.15;33.67;;;;;;;9.87;71.67;99664.75;5092137;28;20095;-80
2022/12/07 01:48:45;;;;;;;73.95;32.85;;;;;;;10.19;71.80;99720.03;5091992;28;20027;-80
2022/12/07 01:51:13;;;;;;;75.95;31.83;;;;;;;10.10;71.45;99696.50;5091207;28;20420;-80
2022/12/07 01:53:45;;;;;;;74.28;32.60;;;;;;;10.19;72.11;99703.38;5074032;28;20021;-80
2022/12/07 01:56:17;;;;;;;71.20;33.75;;;;;;;9.99;72.18;99673.94;5092215;28;20095;-80
2022/12/07 01:58:42;;;;;;;;;;;;;;;10.08;71.92;99704.59;5074376;28;20052;-80
2022/12/07 02:01:08;;;;;;;69.47;31.17;;;;;;;9.81;72.36;99649.63;5092781;28;19908;-80
2022/12/07 02:03:44;;;;;;;69.13;31.63;;;;;;;9.36;72.48;99582.53;5092711;28;20024;-80
2022/12/07 02:06:14;;;;;;;70.82;34.53;;;;;;;9.60;72.09;99610.63;5091865;28;20102;-79
2022/12/07 02:08:40;;;;;;;73.10;32.60;;;;;;;10.15;72.13;99692.34;5092141;28;20418;-80
2022/12/07 02:11:07;;;;;;;77.05;32.22;;;;;;;10.14;72.15;99718.91;5092513;28;20027;-80
2022/12/07 02:13:35;;;;;;;65.88;33.03;;;;;;;10.14;71.77;99697.78;5088327;28;20040;-80
2022/12/07 02:16:09;;;;;;;71.97;34.42;;;;;;;9.23;71.88;99550.63;5092204;28;20020;-80
2022/12/07 02:18:59;;;;;;;70.97;33.67;;;;;;;9.93;71.90;99661.44;5091904;28;20027;-80
2022/12/07 02:21:37;;;;;;;74.40;35.28;;;;;;;9.64;71.91;99621.66;5090572;28;20078;-80
2022/12/07 02:24:15;;;;;;;79.78;35.08;;;;;;;10.06;72.03;99695.19;5091616;28;20034;-80
2022/12/07 02:26:53;;;;;;;77.70;34.08;;;;;;;9.64;71.81;99621.66;5090521;28;20035;-80
2022/12/07 02:29:46;;;;;;;70.03;31.23;;;;;;;9.51;72.50;99625.63;5090437;28;20028;-80
2022/12/07 02:32:44;;;;;;;72.63;31.40;;;;;;;9.83;72.95;99656.38;5091769;28;20527;-80
2022/12/07 02:35:39;;;;;;;69.63;30.73;;;;;;;10.03;72.27;99683.16;5035430;28;20032;-80
2022/12/07 02:38:25;;;;;;;65.18;30.55;;;;;;;10.03;72.52;99677.06;5087360;28;20036;-80
2022/12/07 02:40:57;;;;;;;69.07;33.67;;;;;;;9.84;72.47;99652.75;5091596;28;20024;-80
2022/12/07 02:43:32;;;;;;;74.35;33.55;;;;;;;10.04;72.23;99663.72;5091481;28;20385;-80
2022/12/07 02:46:05;;;;;;;72.63;34.40;;;;;;;10.08;72.40;99674.75;5091517;28;20037;-80
2022/12/07 02:48:33;;;;;;;75.93;34.30;;;;;;;9.52;72.63;99585.13;5090167;28;20050;-80
2022/12/07 02:50:58;;;;;;;77.28;33.47;;;;;;;10.11;72.26;99672.59;5091263;28;20032;-80
2022/12/07 02:53:36;;;;;;;65.28;30.38;;;;;;;9.60;72.19;99605.34;5091294;28;20030;-80
2022/12/07 02:56:26;;;;;;;68.90;32.72;;;;;;;10.09;72.27;99666.66;5090034;28;20107;-80
2022/12/07 02:59:21;;;;;;;68.13;30.33;;;;;;;10.11;72.21;99677.84;5091419;28;20028;-80
2022/12/07 03:01:55;;;;;;;63.85;30.60;;;;;;;10.12;72.54;99663.66;5089992;28;20032;-80
2022/12/07 03:04:26;;;;;;;78.20;33.28;;;;;;;10.12;71.77;99665.50;5090085;28;20035;-80
2022/12/07 03:06:59;;;;;;;76.32;31.55;;;;;;;9.54;71.84;99577.03;5091304;28;20598;-80
2022/12/07 03:09:44;;;;;;;73.82;33.53;;;;;;;9.72;71.88;99616.38;5089946;28;20067;-80
2022/12/07 03:12:16;;;;;;;76.80;34.15;;;;;;;9.29;71.93;99538.59;5089605;28;20068;-80
2022/12/07 03:14:47;;;;;;;;;;;;;;;9.88;72.97;99655.88;5090121;28;20020;-80
2022/12/07 03:17:27;;;;;;;72.05;32.10;;;;;;;9.78;72.40;99647.34;5091073;28;19908;-79
2022/12/07 03:19:57;;;;;;;75.63;31.45;;;;;;;9.88;72.29;99654.03;5091159;28;20024;-80
2022/12/07 03:22:25;;;;;;;67.45;30.17;;;;;;;9.84;72.39;99646.66;5093434;28;20016;-80
2022/12/07 03:24:56;;;;;;;72.60;32.85;;;;;;;10.02;72.51;99670.97;5093722;28;20020;-80
2022/12/07 03:27:35;;;;;;;75.35;33.78;;;;;;;10.04;72.91;99668.97;5093683;28;20100;-80
2022/12/07 03:30:06;;;;;;;70.03;32.47;;;;;;;10.06;72.55;99668.81;5095037;28;20020;-80
2022/12/07 03:32:40;;;;;;;72.20;31.10;;;;;;;10.03;72.97;99669.97;5094800;28;20622;-80
2022/12/07 03:35:18;;;;;;;79.40;36.20;;;;;;;10.02;72.65;99670.16;5094825;28;20457;-80
2022/12/07 03:38:25;;;;;;;73.80;35.55;;;;;;;9.81;72.46;99639.91;5094783;28;20150;-80
2022/12/07 03:41:00;;;;;;;71.95;32.88;;;;;;;9.61;72.45;99612.25;5094599;28;20500;-80
2022/12/07 03:43:28;;;;;;;79.93;32.83;;;;;;;9.52;72.50;99582.47;5094751;28;20097;-79
2022/12/07 03:46:11;;;;;;;73.35;32.90;;;;;;;9.98;72.74;99658.28;5094882;28;20556;-80
2022/12/07 03:48:43;;;;;;;64.50;28.55;;;;;;;8.57;72.62;99443.78;5094607;28;20102;-80
2022/12/07 03:51:16;;;;;;;;;;;;;;;9.79;73.14;99662.97;5095090;28;20020;-80
2022/12/07 03:53:53;;;;;;;64.50;28.70;;;;;;;9.63;72.92;99628.72;5093110;28;19912;-80
2022/12/07 03:56:20;;;;;;;69.20;30.60;;;;;;;9.44;73.02;99577.22;5094468;28;20515;-80
2022/12/07 03:58:46;;;;;;;62.17;29.25;;;;;;;9.43;73.12;99580.03;5093197;28;20438;-80
2022/12/07 04:01:11;;;;;;;65.95;30.80;;;;;;;9.82;72.83;99627.53;5095061;28;20157;-80
2022/12/07 04:03:37;;;;;;;71.43;32.00;;;;;;;9.62;72.83;99594.63;5095311;28;20493;-80
2022/12/07 04:06:03;;;;;;;69.55;31.05;;;;;;;9.18;72.72;99513.44;5093125;28;20103;-80
2022/12/07 04:08:28;;;;;;;66.60;32.83;;;;;;;9.70;72.33;99613.09;5094278;28;20012;-80
2022/12/07 04:10:53;;;;;;;67.00;29.35;;;;;;;9.40;72.50;99549.56;5094244;28;20024;-80
2022/12/07 04:13:19;;;;;;;65.40;29.45;;;;;;;10.06;72.74;99664.34;5094085;28;20036;-80
2022/12/07 04:15:44;;;;;;;67.57;30.10;;;;;;;9.48;72.87;99560.09;5076150;28;20053;-80
2022/12/07 04:18:10;;;;;;;67.03;28.00;;;;;;;9.86;72.72;99628.84;5075862;28;20016;-80
2022/12/07 04:20:35;;;;;;;57.30;28.95;;;;;;;9.43;72.02;99546.59;5093943;28;20565;-80
2022/12/07 04:23:01;;;;;;;71.88;31.42;;;;;;;9.88;72.04;99625.03;5094101;28;20099;-80
2022/12/07 04:25:26;;;;;;;72.65;31.23;;;;;;;9.98;72.23;99635.38;5094096;28;20020;-80
2022/12/07 04:27:51;;;;;;;76.53;34.97;;;;;;;9.21;72.66;99534.16;5094070;28;20024;-80
2022/12/07 04:30:18;;;;;;;84.72;39.65;;;;;;;10.06;72.63;99648.53;5075619;28;20055;-80
2022/12/07 04:32:44;;;;;;;70.72;32.50;;;;;;;9.83;73.08;99618.63;5093115;28;20041;-80
2022/12/07 04:35:09;;;;;;;74.40;34.78;;;;;;;9.97;72.96;99639.00;5093244;28;20031;-80
2022/12/07 04:37:35;;;;;;;68.38;34.72;;;;;;;9.63;72.62;99580.47;5093661;28;20443;-80
2022/12/07 04:40:00;;;;;;;79.35;37.97;;;;;;;9.72;72.49;99584.75;5093803;28;20024;-80
2022/12/07 04:42:26;;;;;;;80.85;38.22;;;;;;;9.31;72.55;99515.53;5093495;28;20058;-80
2022/12/07 04:44:51;;;;;;;82.93;37.45;;;;;;;9.85;72.41;99609.56;5093728;28;20020;-80
2022/12/07 04:47:17;;;;;;;71.47;33.15;;;;;;;9.86;72.53;99621.75;5093648;28;20077;-80
2022/12/07 04:49:42;;;;;;;72.40;32.20;;;;;;;10.08;72.27;99643.09;5093422;28;20016;-80
2022/12/07 04:52:09;;;;;;;73.30;35.20;;;;;;;9.54;72.52;99561.22;5093294;28;20020;-80
2022/12/07 04:54:34;;;;;;;72.20;35.22;;;;;;;9.72;72.18;99592.66;5093484;28;20020;-80
2022/12/07 04:56:59;;;;;;;84.47;36.65;;;;;;;9.48;72.35;99559.28;5094677;28;20026;-80
2022/12/07 04:59:25;;;;;;;80.45;37.00;;;;;;;9.40;72.86;99561.94;5110485;28;20059;-80
2022/12/07 05:01:50;;;;;;;73.30;36.45;;;;;;;9.59;72.74;99593.16;5093204;28;20052;-79
2022/12/07 05:04:17;;;;;;;73.35;35.05;;;;;;;9.47;73.14;99579.53;5093499;28;20099;-80
2022/12/07 05:06:43;;;;;;;80.57;36.33;;;;;;;9.33;72.82;99547.78;5093127;28;20031;-80
2022/12/07 05:09:08;;;;;;;84.25;38.38;;;;;;;9.94;72.75;99659.63;5093147;28;20023;-80
2022/12/07 05:11:40;;;;;;;76.50;36.20;;;;;;;9.56;73.27;99612.78;5092865;28;20454;-80
2022/12/07 05:14:20;;;;;;;77.13;32.25;;;;;;;9.35;72.69;99559.00;5093194;28;20405;-80
2022/12/07 05:16:48;;;;;;;74.68;34.42;;;;;;;9.95;72.89;99663.91;5093152;28;20493;-80
2022/12/07 05:19:14;;;;;;;73.00;33.92;;;;;;;9.22;72.57;99548.97;5074601;28;20020;-80
2022/12/07 05:21:40;;;;;;;79.95;38.40;;;;;;;9.46;73.01;99587.59;5092922;28;20520;-80
2022/12/07 05:24:07;;;;;;;86.97;38.63;;;;;;;9.95;73.00;99658.63;5092800;28;20509;-80
2022/12/07 05:26:34;;;;;;;79.68;39.45;;;;;;;9.36;72.91;99569.34;5092916;28;20031;-80
2022/12/07 05:28:59;;;;;;;72.35;34.72;;;;;;;9.03;72.83;99513.31;5092851;28;20047;-80
2022/12/07 05:31:26;;;;;;;75.07;35.25;;;;;;;9.87;72.37;99657.69;5092476;28;20015;-80
2022/12/07 05:33:52;;;;;;;81.03;36.45;;;;;;;9.67;72.81;99639.78;5092327;28;20024;-80
2022/12/07 05:36:17;;;;;;;87.47;39.13;;;;;;;9.00;72.69;99521.56;5092321;28;20016;-80
2022/12/07 05:38:43;;;;;;;76.93;35.85;;;;;;;9.52;73.40;99618.56;5092348;28;20024;-80
2022/12/07 05:42:11;;;;;;;77.57;39.58;;;;;;;7.81;72.76;99336.34;5074223;28;20106;-80
2022/12/07 05:43:57;;;;;;;89.75;45.10;;;;;;;9.39;72.74;99582.19;5092112;28;20028;-80
2022/12/07 05:46:22;;;;;;;93.72;45.63;;;;;;;9.43;72.61;99590.56;5092199;28;20020;-80
2022/12/07 05:48:48;;;;;;;83.85;41.75;;;;;;;9.82;73.34;99646.00;5092238;28;20405;-79
2022/12/07 05:51:13;;;;;;;79.03;40.53;;;;;;;9.45;72.99;99585.97;5092120;28;20016;-80
2022/12/07 05:53:39;;;;;;;80.55;39.65;;;;;;;9.30;72.47;99567.41;5092142;28;20020;-80
2022/12/07 05:56:05;;;;;;;73.85;38.13;;;;;;;9.43;72.92;99587.94;5092107;28;20023;-80
2022/12/07 06:01:14;;;;;;;79.78;40.22;;;;;;;8.99;72.73;99495.38;5071825;28;20051;-79
2022/12/07 06:03:39;;;;;;;69.18;34.63;;;;;;;9.44;72.68;99586.94;5071435;28;20525;-79
2022/12/07 06:06:05;;;;;;;68.90;35.38;;;;;;;9.85;72.81;99664.13;5070776;28;20512;-79
2022/12/07 06:08:30;;;;;;;69.80;36.72;;;;;;;9.39;72.23;99563.75;5053798;28;20023;-79
2022/12/07 06:13:39;;;;;;;60.85;32.28;;;;;;;9.43;71.90;99582.66;5071378;28;20052;-79
2022/12/07 06:16:05;;;;;;;68.75;35.13;;;;;;;9.46;71.92;99588.44;5071419;28;20020;-80
2022/12/07 06:18:31;;;;;;;63.40;34.42;;;;;;;9.92;71.47;99651.88;5071053;28;20523;-80
2022/12/07 06:20:56;;;;;;;60.83;34.42;;;;;;;9.39;71.75;99563.75;5071601;28;20048;-79
2022/12/07 06:23:21;;;;;;;78.15;40.55;;;;;;;9.71;72.16;99612.09;5070156;28;20086;-79
2022/12/07 06:25:47;;;;;;;83.78;44.88;;;;;;;10.06;71.64;99656.44;5070795;28;20074;-79
2022/12/07 06:28:12;;;;;;;85.60;45.63;;;;;;;9.93;72.07;99635.06;5051078;28;20020;-80
2022/12/07 06:30:38;;;;;;;93.00;49.95;;;;;;;9.67;71.93;99585.25;5061625;28;20047;-80
2022/12/07 06:33:03;;;;;;;87.30;47.33;;;;;;;8.55;72.05;99414.19;5067718;28;20028;-79
2022/12/07 06:35:28;;;;;;;93.85;50.20;;;;;;;9.86;72.04;99615.66;5070603;28;20024;-80
2022/12/07 06:37:54;;;;;;;81.95;47.03;;;;;;;9.68;71.25;99583.44;5071015;28;20016;-79
2022/12/07 06:40:19;;;;;;;83.45;47.22;;;;;;;9.65;71.99;99562.66;5051166;28;20051;-79
2022/12/07 06:42:44;;;;;;;88.55;46.35;;;;;;;9.94;71.96;99598.97;5051115;28;20075;-81
2022/12/07 06:45:10;;;;;;;78.10;44.95;;;;;;;9.97;71.61;99606.53;5065011;28;20020;-81
2022/12/07 06:47:35;;;;;;;70.75;42.35;;;;;;;9.74;70.84;99561.66;5071269;28;20025;-79
2022/12/07 06:50:01;;;;;;;83.55;42.20;;;;;;;9.84;71.13;99600.00;5070694;28;20044;-82
2022/12/07 06:52:26;;;;;;;71.28;41.22;;;;;;;10.33;71.20;99667.56;5070302;28;20024;-82
2022/12/07 06:54:52;;;;;;;73.07;38.30;;;;;;;9.88;71.01;99593.38;5070900;28;20111;-82
2022/12/07 06:57:17;;;;;;;72.68;41.35;;;;;;;10.23;71.74;99651.94;5069800;28;20090;-82
2022/12/07 06:59:42;;;;;;;75.13;38.85;;;;;;;10.27;71.57;99660.34;5058743;28;20044;-82
2022/12/07 07:02:09;;;;;;;72.43;39.33;;;;;;;10.07;71.43;99621.16;5074315;28;20052;-82
2022/12/07 07:04:34;;;;;;;78.00;39.85;;;;;;;10.10;71.67;99626.09;5055877;28;20466;-82
2022/12/07 07:07:00;;;;;;;74.15;39.40;;;;;;;10.41;71.20;99675.47;5074378;28;20024;-83
2022/12/07 07:09:26;;;;;;;76.25;41.15;;;;;;;10.16;71.45;99648.31;5074596;28;20024;-82
2022/12/07 07:11:51;;;;;;;77.63;40.58;;;;;;;10.42;71.01;99667.38;5059659;28;20036;-82
2022/12/07 07:14:18;;;;;;;70.40;38.25;;;;;;;10.01;71.37;99607.84;5072668;28;20029;-82
2022/12/07 07:16:44;;;;;;;80.82;45.25;;;;;;;9.91;71.30;99591.41;5072803;28;20549;-82
2022/12/07 07:19:10;;;;;;;86.68;48.60;;;;;;;10.32;70.88;99666.72;5073985;28;20124;-81
2022/12/07 07:21:36;;;;;;;91.80;52.53;;;;;;;10.49;70.84;99685.97;5074192;28;20028;-81
2022/12/07 07:24:02;;;;;;;87.78;50.00;;;;;;;10.50;71.27;99690.25;5074181;28;20017;-81
2022/12/07 07:26:27;;;;;;;90.22;50.70;;;;;;;9.74;70.59;99561.66;5066791;28;20032;-81
2022/12/07 07:28:53;;;;;;;87.65;50.55;;;;;;;10.40;70.64;99668.50;5062069;28;20098;-81
2022/12/07 07:31:18;;;;;;;86.45;48.53;;;;;;;10.05;71.07;99625.78;5053504;28;20075;-82
2022/12/07 07:33:46;;;;;;;92.20;49.10;;;;;;;10.30;71.02;99666.09;5072028;28;20031;-81
2022/12/07 07:36:12;;;;;;;88.63;53.60;;;;;;;10.01;71.54;99613.94;5068627;28;20037;-81
2022/12/07 07:38:37;;;;;;;93.80;50.53;;;;;;;10.05;71.13;99625.78;5064502;28;20028;-81
2022/12/07 07:41:02;;;;;;;95.72;51.28;;;;;;;9.96;71.36;99603.09;5067390;28;20028;-82
2022/12/07 07:43:28;;;;;;;80.38;45.80;;;;;;;10.37;71.67;99682.88;5065147;28;20055;-81
2022/12/07 07:45:54;;;;;;;89.45;49.28;;;;;;;10.07;71.26;99629.06;5070103;28;20495;-81
2022/12/07 07:48:19;;;;;;;77.82;45.67;;;;;;;10.00;71.02;99608.84;5057821;28;20037;-80
2022/12/07 07:50:44;;;;;;;83.68;48.42;;;;;;;10.10;71.09;99631.38;5063151;28;20487;-81
2022/12/07 07:53:10;;;;;;;86.28;47.28;;;;;;;10.33;71.15;99643.81;5072509;28;20024;-81
2022/12/07 07:55:35;;;;;;;87.25;49.53;;;;;;;9.94;70.73;99562.88;5063027;28;20055;-81
2022/12/07 07:58:01;;;;;;;84.43;46.90;;;;;;;10.27;70.45;99612.84;5066212;28;20028;-82
2022/12/07 08:00:26;;;;;;;87.35;48.25;;;;;;;10.62;70.73;99673.03;5066828;28;20496;-81
2022/12/07 08:02:52;;;;;;;83.68;48.85;;;;;;;10.71;70.32;99677.25;5061878;28;20020;-83
2022/12/07 08:05:17;;;;;;;90.93;52.58;;;;;;;10.72;70.36;99686.81;5072119;28;20479;-82
2022/12/07 08:07:43;;;;;;;79.47;44.50;;;;;;;10.75;70.66;99683.00;5073351;28;20032;-83
2022/12/07 08:10:11;;;;;;;85.25;47.05;;;;;;;10.18;70.40;99589.09;5073524;28;20016;-82
2022/12/07 08:15:30;;;;;;;82.03;48.17;;;;;;;10.76;70.24;99674.91;5071733;28;20102;-82
2022/12/07 08:17:55;;;;;;;86.10;49.53;;;;;;;10.37;70.28;99608.16;5064110;28;20481;-81
2022/12/07 08:20:21;;;;;;;85.00;48.97;;;;;;;10.79;70.26;99669.25;5053625;28;20051;-82
2022/12/07 08:22:47;;;;;;;84.05;46.55;;;;;;;10.77;69.94;99655.41;5072017;28;20508;-82
2022/12/07 08:25:12;;;;;;;75.95;44.17;;;;;;;10.35;69.20;99573.19;5071661;28;20028;-81
2022/12/07 08:27:38;;;;;;;83.40;45.55;;;;;;;10.97;69.30;99674.25;5061526;28;20127;-81
2022/12/07 08:30:04;;;;;;;75.50;42.45;;;;;;;10.06;69.45;99537.75;5071006;28;20112;-80
2022/12/07 08:32:29;;;;;;;83.35;43.20;;;;;;;10.54;69.29;99616.81;5073336;28;20032;-81
2022/12/07 08:34:55;;;;;;;69.72;39.95;;;;;;;10.85;68.50;99673.03;5064588;28;20024;-81
2022/12/07 08:37:20;;;;;;;75.53;41.78;;;;;;;10.86;68.63;99664.09;5065467;28;20017;-81
2022/12/07 08:39:46;;;;;;;69.75;39.75;;;;;;;10.63;68.52;99636.88;5068289;28;20032;-81
2022/12/07 08:42:11;;;;;;;71.47;40.00;;;;;;;10.89;68.76;99660.28;5072849;28;20016;-81
2022/12/07 08:44:36;;;;;;;57.28;37.38;;;;;;;10.96;68.50;99680.53;5072814;28;20465;-81
2022/12/07 08:47:06;;;;;;;79.13;44.80;;;;;;;11.01;68.50;99669.44;5038181;28;20054;-81
2022/12/07 08:49:37;;;;;;;81.65;46.65;;;;;;;10.49;68.44;99581.19;5071962;28;20161;-81
2022/12/07 08:52:04;;;;;;;81.07;47.93;;;;;;;10.98;68.13;99665.31;5072297;28;20162;-81
2022/12/07 08:54:30;;;;;;;90.43;54.40;;;;;;;10.89;68.71;99639.16;5072105;28;20120;-81
2022/12/07 08:56:56;;;;;;;85.03;51.00;;;;;;;10.92;68.19;99649.38;5072697;28;20029;-81
2022/12/07 08:59:23;;;;;;;78.72;45.60;;;;;;;10.67;68.54;99623.16;5067430;28;20095;-80
2022/12/07 09:01:48;;;;;;;70.55;44.47;;;;;;;10.36;68.35;99549.25;5067655;28;20040;-80
2022/12/07 09:04:15;;;;;;;81.00;45.28;;;;;;;10.71;68.53;99605.13;5072348;28;20028;-81
2022/12/07 09:06:41;;;;;;;79.07;47.97;;;;;;;10.72;67.99;99591.75;5043578;28;20024;-81
2022/12/07 09:09:08;;;;;;;81.32;48.03;;;;;;;10.89;68.21;99597.72;5057361;28;20135;-81
2022/12/07 09:11:33;;;;;;;78.85;44.53;;;;;;;11.22;68.04;99629.97;5070485;28;20501;-81
2022/12/07 09:13:59;;;;;;;70.53;37.45;;;;;;;10.65;67.68;99548.56;5067417;28;20054;-81
2022/12/07 09:16:24;;;;;;;65.75;34.53;;;;;;;11.15;67.70;99634.31;5066610;28;20029;-83
2022/12/07 09:18:50;;;;;;;68.38;37.65;;;;;;;10.99;67.69;99616.78;5066908;28;20044;-81
2022/12/07 09:21:15;;;;;;;63.90;33.47;;;;;;;10.66;67.67;99575.78;5059212;28;20059;-81
2022/12/07 09:23:43;;;;;;;60.58;32.60;;;;;;;10.60;67.75;99560.66;5068580;28;20024;-80
2022/12/07 09:26:09;;;;;;;57.75;34.90;;;;;;;10.95;68.40;99606.75;5068599;28;20036;-80
2022/12/07 09:28:34;;;;;;;57.95;33.47;;;;;;;10.82;67.90;99581.75;5060943;28;20048;-79
2022/12/07 09:31:00;;;;;;;60.72;34.70;;;;;;;10.67;68.11;99562.41;5071877;28;20032;-79
2022/12/07 09:33:25;;;;;;;60.78;34.42;;;;;;;10.57;67.55;99532.78;5054866;28;20040;-80
2022/12/07 09:35:51;;;;;;;52.13;31.55;;;;;;;11.13;67.54;99625.72;5052311;28;20512;-79
2022/12/07 09:38:19;;;;;;;56.10;32.55;;;;;;;10.27;67.20;99489.63;5067966;28;20024;-80
2022/12/07 09:40:44;;;;;;;60.53;32.55;;;;;;;10.99;67.12;99584.25;5065542;28;20507;-79
2022/12/07 09:43:28;;;;;;;57.65;33.35;;;;;;;10.54;67.14;99504.13;5049650;28;20120;-79
2022/12/07 09:45:55;;;;;;;55.13;31.23;;;;;;;10.75;66.64;99501.59;5071343;28;20531;-80
2022/12/07 09:48:25;;;;;;;52.58;31.00;;;;;;;11.43;67.38;99597.53;5070509;28;20035;-80
2022/12/07 09:50:54;;;;;;;53.60;30.02;;;;;;;11.24;66.75;99553.97;5070881;28;20413;-79
2022/12/07 09:53:35;;;;;;;55.22;31.08;;;;;;;11.04;66.81;99508.72;5056941;28;20029;-79
2022/12/07 09:56:01;;;;;;;48.97;29.70;;;;;;;10.93;66.53;99501.25;5067508;28;20137;-80
2022/12/07 09:58:29;;;;;;;54.25;29.98;;;;;;;11.55;65.86;99593.44;5048994;28;20040;-80
2022/12/07 10:01:07;;;;;;;52.47;29.52;;;;;;;11.51;66.36;99591.34;5065205;28;20473;-80
2022/12/07 10:03:33;;;;;;;48.05;27.08;;;;;;;11.46;66.13;99591.88;5052081;28;20028;-79
2022/12/07 10:05:58;;;;;;;45.42;26.75;;;;;;;11.43;65.88;99579.84;5071395;28;20043;-79
2022/12/07 10:08:24;;;;;;;44.40;27.15;;;;;;;11.23;66.11;99536.47;5054111;28;20497;-80
2022/12/07 10:10:53;;;;;;;53.33;28.38;;;;;;;10.35;66.21;99373.44;5063212;28;20020;-79
2022/12/07 10:13:21;;;;;;;51.10;30.48;;;;;;;11.51;65.71;99541.91;5066114;28;20049;-79
2022/12/07 10:15:54;;;;;;;43.38;26.48;;;;;;;11.73;65.63;99574.53;5053066;28;20060;-79
2022/12/07 10:18:19;;;;;;;50.28;27.05;;;;;;;11.78;65.38;99574.84;5071263;28;20436;-80
2022/12/07 10:20:47;;;;;;;48.70;29.08;;;;;;;11.41;65.14;99502.53;5055005;28;20047;-79
2022/12/07 10:23:18;;;;;;;49.92;29.45;;;;;;;11.36;65.20;99478.47;5068394;28;20024;-79
2022/12/07 10:25:44;;;;;;;50.20;28.23;;;;;;;11.96;65.05;99555.94;5068256;28;20036;-79
2022/12/07 10:28:18;;;;;;;45.92;28.60;;;;;;;11.58;64.83;99497.03;5073471;28;20025;-79
2022/12/07 10:30:57;;;;;;;51.42;29.08;;;;;;;11.80;64.75;99527.84;5063830;28;20569;-79
2022/12/07 10:33:53;;;;;;;46.17;29.90;;;;;;;11.97;64.73;99550.47;5084544;28;20023;-79
2022/12/07 10:36:26;;;;;;;41.28;27.98;;;;;;;12.01;64.67;99546.44;5068307;28;20492;-79
2022/12/07 10:39:11;;;;;;;57.45;36.30;;;;;;;11.80;64.26;99506.69;5057868;28;20113;-79
2022/12/07 10:41:58;;;;;;;41.90;27.48;;;;;;;11.56;64.32;99470.78;5070871;28;20106;-79
2022/12/07 10:44:27;;;;;;;45.70;26.80;;;;;;;11.36;64.29;99430.09;5048791;28;20168;-79
2022/12/07 10:47:19;;;;;;;43.65;28.15;;;;;;;12.14;63.66;99537.81;5049888;28;20505;-79
2022/12/07 10:50:13;;;;;;;41.65;24.92;;;;;;;12.16;63.82;99534.97;5053423;28;20037;-79
2022/12/07 10:53:01;;;;;;;40.20;24.55;;;;;;;11.94;63.86;99532.31;5069230;28;20025;-80
2022/12/07 10:55:53;;;;;;;40.67;27.10;;;;;;;12.08;63.30;99536.75;5053757;28;20024;-80
2022/12/07 10:58:37;;;;;;;44.70;28.00;;;;;;;12.13;63.62;99532.72;5069588;28;20603;-79
2022/12/07 11:01:41;;;;;;;45.47;28.15;;;;;;;12.21;63.85;99535.22;5082380;28;20024;-79
2022/12/07 11:05:04;;;;;;;43.90;29.50;;;;;;;12.27;63.61;99532.66;5053677;28;20033;-79
2022/12/07 11:07:41;;;;;;;;;;;;;;;12.27;63.70;99523.88;4990593;28;20076;-79
2022/12/07 11:10:27;;;;;;;42.03;25.27;;;;;;;12.39;63.77;99527.66;5001261;28;19920;-79
2022/12/07 11:13:24;;;;;;;41.97;27.23;;;;;;;12.11;63.06;99484.44;5049340;28;20044;-80
2022/12/07 11:16:04;;;;;;;44.22;29.42;;;;;;;12.52;63.42;99514.53;5069750;28;20489;-79
2022/12/07 11:18:36;;;;;;;44.15;26.77;;;;;;;12.59;62.87;99506.66;5050639;28;20051;-80
2022/12/07 11:21:54;;;;;;;39.75;26.60;;;;;;;12.44;62.72;99479.44;5061066;28;20050;-80
2022/12/07 11:24:27;;;;;;;46.42;30.00;;;;;;;12.62;63.08;99511.56;5033112;28;20078;-80
2022/12/07 11:27:34;;;;;;;43.10;27.00;;;;;;;12.63;63.12;99503.44;5069280;28;20025;-79
2022/12/07 11:30:12;;;;;;;44.67;29.42;;;;;;;12.54;62.55;99501.09;4969563;28;20035;-80
2022/12/07 11:32:55;;;;;;;41.22;24.60;;;;;;;12.43;62.71;99497.16;4957644;28;20055;-79
2022/12/07 11:35:34;;;;;;;47.30;28.23;;;;;;;12.41;63.01;99492.03;5024953;28;20044;-80
2022/12/07 11:38:17;;;;;;;46.90;28.35;;;;;;;12.08;63.55;99443.28;5050298;28;20029;-79
2022/12/07 11:40:49;;;;;;;46.50;27.75;;;;;;;12.39;63.17;99496.72;5050068;28;20085;-79
2022/12/07 11:43:28;;;;;;;;;;;;;;;12.25;63.50;99487.03;5061164;28;20489;-80